createdAt,value
2023-03-24T00:01:25.714Z,66.26
2023-03-24T00:03:53.512Z,67.07
2023-03-24T00:06:23.003Z,67.82
2023-03-24T00:08:51.356Z,68.71
2023-03-24T00:11:21.427Z,68.26
2023-03-24T00:13:50.593Z,69.58
2023-03-24T00:16:19.910Z,69.59
2023-03-24T00:18:54.024Z,70.50
2023-03-24T00:21:24.991Z,71.04
2023-03-24T00:23:55.406Z,71.13
2023-03-24T00:26:25.435Z,69.19
2023-03-24T00:28:55.602Z,68.91
2023-03-24T00:31:24.658Z,68.46
2023-03-24T00:33:53.876Z,70.00
2023-03-24T00:36:24.561Z,69.37
2023-03-24T00:38:53.860Z,69.57
2023-03-24T00:41:25.083Z,70.19
2023-03-24T00:43:56.755Z,71.38
2023-03-24T00:46:28.338Z,72.13
2023-03-24T00:49:12.057Z,72.12
2023-03-24T00:51:41.845Z,71.49
2023-03-24T00:54:11.460Z,73.47
2023-03-24T00:56:40.972Z,74.32
2023-03-24T00:59:10.658Z,74.93
2023-03-24T01:01:41.262Z,78.48
2023-03-24T01:04:10.657Z,78.85
2023-03-24T01:06:39.499Z,77.81
2023-03-24T01:09:08.251Z,79.49
2023-03-24T01:11:41.512Z,80.15
2023-03-24T01:14:10.570Z,86.39
2023-03-24T01:16:38.409Z,85.34
2023-03-24T01:19:08.736Z,90.69
2023-03-24T01:21:38.739Z,91.24
2023-03-24T01:24:06.565Z,90.47
2023-03-24T01:26:35.438Z,92.28
2023-03-24T01:29:03.241Z,92.94
2023-03-24T01:31:31.179Z,94.45
2023-03-24T01:33:59.232Z,94.85
2023-03-24T01:36:27.338Z,93.91
2023-03-24T01:38:55.542Z,94.44
2023-03-24T01:41:23.600Z,94.67
2023-03-24T01:43:51.716Z,95.67
2023-03-24T01:46:21.374Z,96.27
2023-03-24T01:49:01.790Z,95.01
2023-03-24T01:51:40.412Z,95.00
2023-03-24T01:54:16.268Z,95.73
2023-03-24T01:56:50.916Z,95.61
2023-03-24T01:59:23.671Z,96.76
2023-03-24T02:02:10.269Z,96.19
2023-03-24T02:04:54.210Z,96.02
2023-03-24T02:07:53.172Z,97.25
2023-03-24T02:10:23.320Z,98.66
2023-03-24T02:12:51.404Z,100.00
2023-03-24T02:15:20.291Z,99.37
2023-03-24T02:17:54.878Z,99.29
2023-03-24T02:20:28.740Z,99.24
2023-03-24T02:23:24.176Z,98.70
2023-03-24T02:26:10.745Z,98.90
2023-03-24T02:28:53.984Z,100.00
2023-03-24T02:31:56.956Z,100.00
2023-03-24T02:34:55.236Z,100.00
2023-03-24T02:37:45.336Z,100.00
2023-03-24T02:40:24.583Z,100.00
2023-03-24T02:43:29.826Z,100.00
2023-03-24T02:46:28.878Z,100.00
2023-03-24T02:49:16.241Z,100.00
2023-03-24T02:51:54.251Z,100.00
2023-03-24T02:54:33.295Z,100.00
2023-03-24T02:57:09.232Z,100.00
2023-03-24T03:00:36.101Z,100.00
2023-03-24T03:03:12.190Z,98.74
2023-03-24T03:05:48.295Z,98.06
2023-03-24T03:08:18.351Z,98.29
2023-03-24T03:10:48.835Z,98.76
2023-03-24T03:13:24.955Z,99.33
2023-03-24T03:15:56.797Z,100.00
2023-03-24T03:18:33.305Z,100.00
2023-03-24T03:21:08.020Z,100.00
2023-03-24T03:23:44.765Z,100.00
2023-03-24T03:26:17.526Z,100.00
2023-03-24T03:28:57.982Z,100.00
2023-03-24T03:31:35.297Z,100.00
2023-03-24T03:34:19.256Z,100.00
2023-03-24T03:36:55.057Z,100.00
2023-03-24T03:39:29.770Z,100.00
2023-03-24T03:42:00.712Z,100.00
2023-03-24T03:44:28.905Z,100.00
2023-03-24T03:46:56.522Z,100.00
2023-03-24T03:49:34.288Z,100.00
2023-03-24T03:52:02.278Z,100.00
2023-03-24T03:54:31.982Z,100.00
2023-03-24T03:57:00.464Z,100.00
2023-03-24T03:59:35.498Z,100.00
2023-03-24T04:02:20.042Z,100.00
2023-03-24T04:05:05.969Z,100.00
2023-03-24T04:08:31.501Z,100.00
2023-03-24T04:11:41.504Z,100.00
2023-03-24T04:14:11.843Z,100.00
2023-03-24T04:17:06.277Z,100.00
2023-03-24T04:19:48.006Z,100.00
2023-03-24T04:22:38.490Z,100.00
2023-03-24T04:25:50.090Z,100.00
2023-03-24T04:28:22.339Z,100.00
2023-03-24T04:30:58.337Z,100.00
2023-03-24T04:33:45.744Z,100.00
2023-03-24T04:36:27.518Z,100.00
2023-03-24T04:39:28.365Z,100.00
2023-03-24T04:42:02.309Z,100.00
2023-03-24T04:44:33.296Z,100.00
2023-03-24T04:47:23.079Z,100.00
2023-03-24T04:50:31.120Z,100.00
2023-03-24T04:53:01.848Z,100.00
2023-03-24T04:55:48.367Z,100.00
2023-03-24T04:58:19.662Z,100.00
2023-03-24T05:00:48.454Z,100.00
2023-03-24T05:03:18.897Z,100.00
2023-03-24T05:05:49.602Z,100.00
2023-03-24T05:08:18.993Z,100.00
2023-03-24T05:10:48.242Z,100.00
2023-03-24T05:13:17.101Z,100.00
2023-03-24T05:15:53.978Z,100.00
2023-03-24T05:18:43.591Z,100.00
2023-03-24T05:21:12.205Z,100.00
2023-03-24T05:23:40.687Z,100.00
2023-03-24T05:26:10.362Z,100.00
2023-03-24T05:28:58.509Z,100.00
2023-03-24T05:31:26.175Z,100.00
2023-03-24T05:34:03.562Z,100.00
2023-03-24T05:36:34.537Z,100.00
2023-03-24T05:39:02.813Z,100.00
2023-03-24T05:41:42.501Z,100.00
2023-03-24T05:44:10.094Z,100.00
2023-03-24T05:46:38.357Z,100.00
2023-03-24T05:49:06.101Z,100.00
2023-03-24T05:51:37.884Z,100.00
2023-03-24T05:54:08.687Z,100.00
2023-03-24T05:56:48.295Z,100.00
2023-03-24T05:59:15.982Z,100.00
2023-03-24T06:02:12.600Z,100.00
2023-03-24T06:04:57.842Z,100.00
2023-03-24T06:07:26.987Z,100.00
2023-03-24T06:09:58.390Z,100.00
2023-03-24T06:12:28.071Z,99.73
2023-03-24T06:15:05.167Z,98.78
2023-03-24T06:17:34.211Z,99.17
2023-03-24T06:20:15.680Z,99.83
2023-03-24T06:23:07.205Z,99.92
2023-03-24T06:25:47.713Z,98.62
2023-03-24T06:28:26.153Z,100.00
2023-03-24T06:30:59.034Z,100.00
2023-03-24T06:33:34.405Z,100.00
2023-03-24T06:36:02.837Z,100.00
2023-03-24T06:38:32.166Z,100.00
2023-03-24T06:41:01.375Z,100.00
2023-03-24T06:43:30.215Z,100.00
2023-03-24T06:45:59.332Z,100.00
2023-03-24T06:48:28.912Z,99.91
2023-03-24T06:51:03.475Z,98.09
2023-03-24T06:53:31.604Z,96.49
2023-03-24T06:55:59.680Z,96.73
2023-03-24T06:58:34.666Z,94.82
2023-03-24T07:01:07.583Z,92.92
2023-03-24T07:03:36.900Z,92.17
2023-03-24T07:06:24.830Z,91.89
2023-03-24T07:08:56.892Z,89.24
2023-03-24T07:11:28.633Z,90.96
2023-03-24T07:13:59.975Z,85.21
2023-03-24T07:16:29.684Z,81.52
2023-03-24T07:19:19.527Z,78.48
2023-03-24T07:21:51.974Z,78.47
2023-03-24T07:24:30.565Z,75.48
2023-03-24T07:27:09.257Z,74.82
2023-03-24T07:29:37.586Z,71.75
2023-03-24T07:32:15.555Z,69.90
2023-03-24T07:34:45.889Z,69.18
2023-03-24T07:37:13.872Z,69.11
2023-03-24T07:39:41.539Z,66.43
2023-03-24T07:42:11.798Z,67.87
2023-03-24T07:44:56.281Z,70.90
2023-03-24T07:47:27.016Z,72.22
2023-03-24T07:49:57.485Z,73.30
2023-03-24T07:52:25.242Z,75.56
2023-03-24T07:54:55.902Z,79.62
2023-03-24T07:57:50.260Z,79.97
2023-03-24T08:00:19.929Z,80.71
2023-03-24T08:03:00.193Z,77.95
2023-03-24T08:05:48.803Z,77.25
2023-03-24T08:08:22.294Z,76.20
2023-03-24T08:10:51.082Z,77.16
2023-03-24T08:13:19.429Z,77.09
2023-03-24T08:15:47.119Z,78.74
2023-03-24T08:18:16.256Z,79.56
2023-03-24T08:20:44.224Z,81.92
2023-03-24T08:23:12.771Z,79.52
2023-03-24T08:25:40.404Z,79.85
2023-03-24T08:28:08.530Z,80.25
2023-03-24T08:30:36.392Z,76.33
2023-03-24T08:33:05.003Z,75.42
2023-03-24T08:35:35.058Z,75.42
2023-03-24T08:38:06.697Z,79.14
2023-03-24T08:40:37.252Z,76.47
2023-03-24T08:43:11.284Z,73.64
2023-03-24T08:45:38.934Z,72.13
2023-03-24T08:48:08.166Z,74.76
2023-03-24T08:50:39.952Z,73.44
2023-03-24T08:53:09.594Z,79.59
2023-03-24T08:55:41.749Z,80.80
2023-03-24T08:58:17.758Z,81.56
2023-03-24T09:00:47.692Z,74.48
2023-03-24T09:03:22.524Z,74.28
2023-03-24T09:05:51.014Z,70.23
2023-03-24T09:08:20.172Z,74.27
2023-03-24T09:10:47.881Z,67.20
2023-03-24T09:13:16.717Z,66.19
2023-03-24T09:15:52.906Z,61.55
2023-03-24T09:18:22.224Z,61.56
2023-03-24T09:20:51.187Z,57.84
2023-03-24T09:23:20.306Z,58.98
2023-03-24T09:25:53.877Z,58.11
2023-03-24T09:28:23.147Z,60.77
2023-03-24T09:30:51.335Z,63.67
2023-03-24T09:33:19.709Z,63.02
2023-03-24T09:35:56.014Z,62.70
2023-03-24T09:38:25.678Z,66.40
2023-03-24T09:41:03.034Z,75.64
2023-03-24T09:43:41.041Z,80.20
2023-03-24T09:46:20.463Z,81.84
2023-03-24T09:48:59.829Z,76.51
2023-03-24T09:51:30.121Z,73.70
2023-03-24T09:54:19.692Z,73.91
2023-03-24T09:56:51.285Z,81.28
2023-03-24T09:59:21.374Z,82.16
2023-03-24T10:01:49.822Z,78.61
2023-03-24T10:04:24.529Z,78.62
2023-03-24T10:07:03.919Z,77.13
2023-03-24T10:09:35.080Z,72.37
2023-03-24T10:12:21.224Z,68.51
2023-03-24T10:15:10.023Z,58.72
2023-03-24T10:18:08.202Z,55.94
2023-03-24T10:20:55.265Z,54.13
2023-03-24T10:23:37.948Z,51.38
2023-03-24T10:26:32.491Z,51.34
2023-03-24T10:29:24.993Z,48.78
2023-03-24T10:31:59.676Z,48.48
2023-03-24T10:34:33.857Z,49.57
2023-03-24T10:37:04.328Z,48.65
2023-03-24T10:39:44.282Z,45.93
2023-03-24T10:42:21.879Z,43.08
2023-03-24T10:44:51.524Z,42.33
2023-03-24T10:47:26.380Z,39.23
2023-03-24T10:50:14.331Z,39.44
2023-03-24T10:52:48.924Z,40.17
2023-03-24T10:55:19.771Z,39.99
2023-03-24T10:57:51.836Z,39.09
2023-03-24T11:00:29.718Z,41.67
2023-03-24T11:03:02.034Z,41.25
2023-03-24T11:05:36.872Z,40.04
2023-03-24T11:08:38.731Z,38.45
2023-03-24T11:11:32.500Z,37.40
2023-03-24T11:14:04.598Z,35.67
2023-03-24T11:16:36.767Z,35.52
2023-03-24T11:19:06.975Z,36.25
2023-03-24T11:21:38.129Z,35.63
2023-03-24T11:24:15.721Z,35.63
2023-03-24T11:27:02.301Z,35.97
2023-03-24T11:29:33.187Z,35.68
2023-03-24T11:32:03.591Z,35.63
2023-03-24T11:34:42.315Z,35.58
2023-03-24T11:37:23.493Z,35.41
2023-03-24T11:40:12.547Z,36.49
2023-03-24T11:42:45.465Z,34.42
2023-03-24T11:45:28.114Z,37.95
2023-03-24T11:47:58.954Z,34.96
2023-03-24T11:50:33.650Z,33.50
2023-03-24T11:53:11.938Z,31.14
2023-03-24T11:56:01.034Z,29.39
2023-03-24T11:58:55.139Z,30.89
2023-03-24T12:01:22.661Z,31.78
2023-03-24T12:03:51.256Z,31.81
2023-03-24T12:06:40.213Z,31.85
2023-03-24T12:09:34.955Z,30.82
2023-03-24T12:12:15.678Z,33.27
2023-03-24T12:14:44.198Z,32.68
2023-03-24T12:17:14.447Z,32.98
2023-03-24T12:19:42.129Z,33.21
2023-03-24T12:22:31.448Z,32.13
2023-03-24T12:25:11.664Z,31.16
2023-03-24T12:28:00.828Z,34.16
2023-03-24T12:30:44.490Z,33.83
2023-03-24T12:33:15.861Z,33.70
2023-03-24T12:36:09.082Z,34.02
2023-03-24T12:39:06.905Z,33.71
2023-03-24T12:41:46.800Z,35.48
2023-03-24T12:44:20.567Z,33.87
2023-03-24T12:47:10.287Z,34.74
2023-03-24T12:50:02.664Z,34.53
2023-03-24T12:53:06.687Z,33.63
2023-03-24T12:55:44.961Z,36.62
2023-03-24T12:58:21.825Z,35.39
2023-03-24T13:01:21.396Z,34.90
2023-03-24T13:04:32.353Z,34.49
2023-03-24T13:07:07.382Z,34.52
2023-03-24T13:09:41.791Z,34.22
2023-03-24T13:12:21.822Z,34.96
2023-03-24T13:14:54.006Z,34.32
2023-03-24T13:17:39.066Z,33.61
2023-03-24T13:20:13.607Z,35.27
2023-03-24T13:22:42.921Z,32.19
2023-03-24T13:25:40.853Z,30.85
2023-03-24T13:28:13.529Z,31.82
2023-03-24T13:30:43.191Z,30.43
2023-03-24T13:33:26.724Z,31.70
2023-03-24T13:36:33.376Z,30.99
2023-03-24T13:39:07.030Z,29.74
2023-03-24T13:41:39.911Z,27.45
2023-03-24T13:44:19.781Z,30.43
2023-03-24T13:47:05.948Z,30.37
2023-03-24T13:49:34.337Z,26.79
2023-03-24T13:52:06.439Z,27.14
2023-03-24T13:54:37.988Z,27.48
2023-03-24T13:57:12.926Z,26.76
2023-03-24T14:00:02.248Z,27.43
2023-03-24T14:02:46.613Z,25.90
2023-03-24T14:05:26.547Z,24.54
2023-03-24T14:08:13.205Z,28.31
2023-03-24T14:10:45.732Z,29.52
2023-03-24T14:13:13.887Z,26.31
2023-03-24T14:15:46.410Z,26.20
2023-03-24T14:18:37.544Z,25.08
2023-03-24T14:21:07.854Z,25.89
2023-03-24T14:23:37.707Z,25.61
2023-03-24T14:26:21.601Z,25.49
2023-03-24T14:28:52.957Z,27.83
2023-03-24T14:31:29.871Z,29.16
2023-03-24T14:34:03.713Z,27.47
2023-03-24T14:36:41.182Z,25.94
2023-03-24T14:39:37.042Z,27.40
2023-03-24T14:42:28.780Z,28.10
2023-03-24T14:44:58.687Z,26.73
2023-03-24T14:47:32.100Z,25.75
2023-03-24T14:50:10.650Z,25.93
2023-03-24T14:52:51.270Z,28.55
2023-03-24T14:55:20.073Z,28.25
2023-03-24T14:58:04.454Z,27.48
2023-03-24T15:00:51.764Z,23.93
2023-03-24T15:03:41.535Z,23.58
2023-03-24T15:06:15.987Z,23.48
2023-03-24T15:08:52.858Z,23.61
2023-03-24T15:11:33.833Z,24.44
2023-03-24T15:14:05.365Z,25.09
2023-03-24T15:16:36.457Z,27.03
2023-03-24T15:19:25.394Z,31.13
2023-03-24T15:22:06.477Z,33.58
2023-03-24T15:24:37.663Z,35.45
2023-03-24T15:27:08.273Z,36.68
2023-03-24T15:29:42.151Z,36.95
2023-03-24T15:32:22.721Z,38.10
2023-03-24T15:34:56.663Z,38.37
2023-03-24T15:37:30.842Z,38.59
2023-03-24T15:40:08.995Z,39.11
2023-03-24T15:42:46.701Z,39.37
2023-03-24T15:45:30.000Z,40.69
2023-03-24T15:47:59.245Z,41.55
2023-03-24T15:50:38.860Z,42.22
2023-03-24T15:53:23.919Z,42.10
2023-03-24T15:56:06.499Z,41.47
2023-03-24T15:59:15.227Z,40.61
2023-03-24T16:01:45.530Z,40.27
2023-03-24T16:04:15.922Z,41.29
2023-03-24T16:06:53.862Z,40.88
2023-03-24T16:09:27.723Z,41.83
2023-03-24T16:11:56.566Z,42.18
2023-03-24T16:14:29.895Z,41.91
2023-03-24T16:17:00.871Z,42.40
2023-03-24T16:19:29.270Z,42.84
2023-03-24T16:21:57.941Z,43.17
2023-03-24T16:24:26.012Z,43.17
2023-03-24T16:26:54.347Z,43.34
2023-03-24T16:29:24.338Z,43.87
2023-03-24T16:31:56.072Z,43.76
2023-03-24T16:34:24.639Z,44.02
2023-03-24T16:36:54.650Z,44.30
2023-03-24T16:39:25.742Z,44.42
2023-03-24T16:41:53.781Z,44.25
2023-03-24T16:44:22.495Z,44.44
2023-03-24T16:46:53.894Z,44.71
2023-03-24T16:49:23.215Z,44.78
2023-03-24T16:51:53.153Z,44.50
2023-03-24T16:54:21.790Z,44.42
2023-03-24T16:56:50.041Z,44.09
2023-03-24T16:59:17.686Z,44.38
2023-03-24T17:01:46.366Z,44.33
2023-03-24T17:04:17.092Z,44.46
2023-03-24T17:06:52.911Z,44.21
2023-03-24T17:09:22.189Z,44.76
2023-03-24T17:11:56.056Z,44.55
2023-03-24T17:14:25.075Z,44.78
2023-03-24T17:16:53.790Z,45.05
2023-03-24T17:19:24.918Z,45.01
2023-03-24T17:22:02.336Z,45.49
2023-03-24T17:24:38.114Z,45.46
2023-03-24T17:27:13.572Z,45.59
2023-03-24T17:29:42.323Z,45.83
2023-03-24T17:32:11.794Z,46.13
2023-03-24T17:34:42.845Z,46.40
2023-03-24T17:37:11.341Z,46.43
2023-03-24T17:39:40.472Z,46.73
2023-03-24T17:42:08.622Z,47.09
2023-03-24T17:44:36.345Z,46.75
2023-03-24T17:47:05.006Z,46.78
2023-03-24T17:49:33.863Z,47.18
2023-03-24T17:52:01.967Z,47.15
2023-03-24T17:54:30.533Z,47.35
2023-03-24T17:56:59.040Z,47.16
2023-03-24T17:59:27.560Z,47.37
2023-03-24T18:01:55.718Z,47.75
2023-03-24T18:04:23.993Z,47.98
2023-03-24T18:06:51.833Z,48.67
2023-03-24T18:09:19.928Z,48.63
2023-03-24T18:11:47.979Z,48.81
2023-03-24T18:14:16.535Z,49.23
2023-03-24T18:16:45.580Z,49.66
2023-03-24T18:19:13.676Z,49.80
2023-03-24T18:21:42.755Z,49.76
2023-03-24T18:24:12.141Z,49.49
2023-03-24T18:26:40.676Z,50.39
2023-03-24T18:29:08.805Z,50.37
2023-03-24T18:31:37.234Z,50.87
2023-03-24T18:34:05.194Z,51.34
2023-03-24T18:36:32.946Z,51.82
2023-03-24T18:39:07.127Z,51.75
2023-03-24T18:41:39.913Z,52.29
2023-03-24T18:44:11.527Z,52.47
2023-03-24T18:46:40.413Z,52.98
2023-03-24T18:49:13.734Z,53.06
2023-03-24T18:51:42.318Z,53.34
2023-03-24T18:54:13.151Z,53.92
2023-03-24T18:56:41.924Z,54.61
2023-03-24T18:59:11.856Z,54.68
2023-03-24T19:01:40.145Z,54.18
2023-03-24T19:04:09.340Z,54.44
2023-03-24T19:06:37.326Z,55.03
2023-03-24T19:09:05.750Z,54.70
2023-03-24T19:11:33.936Z,55.01
2023-03-24T19:14:02.343Z,55.94
2023-03-24T19:16:31.160Z,55.58
2023-03-24T19:19:00.277Z,56.44
2023-03-24T19:21:28.184Z,56.80
2023-03-24T19:23:57.208Z,56.87
2023-03-24T19:26:26.162Z,57.17
2023-03-24T19:28:54.469Z,57.42
2023-03-24T19:31:23.139Z,57.52
2023-03-24T19:33:52.589Z,58.06
2023-03-24T19:36:20.466Z,58.77
2023-03-24T19:38:48.586Z,59.85
2023-03-24T19:41:16.805Z,59.61
2023-03-24T19:43:44.965Z,60.20
2023-03-24T19:46:13.784Z,60.37
2023-03-24T19:48:41.544Z,61.34
2023-03-24T19:51:09.231Z,61.99
2023-03-24T19:53:37.339Z,61.75
2023-03-24T19:56:06.810Z,61.22
2023-03-24T19:58:34.946Z,61.10
2023-03-24T20:01:03.498Z,60.65
2023-03-24T20:03:32.005Z,60.09
2023-03-24T20:06:05.132Z,60.44
2023-03-24T20:08:33.342Z,60.49
2023-03-24T20:11:03.700Z,60.58
2023-03-24T20:13:32.316Z,61.22
2023-03-24T20:15:59.997Z,62.40
2023-03-24T20:18:28.748Z,62.50
2023-03-24T20:20:59.873Z,62.81
2023-03-24T20:23:28.760Z,62.13
2023-03-24T20:25:59.932Z,62.11
2023-03-24T20:28:28.588Z,62.25
2023-03-24T20:31:01.840Z,61.99
2023-03-24T20:33:30.264Z,62.17
2023-03-24T20:35:59.474Z,62.31
2023-03-24T20:38:27.510Z,62.27
2023-03-24T20:41:05.242Z,62.09
2023-03-24T20:43:36.204Z,62.37
2023-03-24T20:46:07.762Z,62.41
2023-03-24T20:48:36.954Z,61.58
2023-03-24T20:51:05.975Z,61.30
2023-03-24T20:53:35.917Z,61.77
2023-03-24T20:56:06.874Z,61.88
2023-03-24T20:58:37.657Z,62.63
2023-03-24T21:01:09.929Z,63.31
2023-03-24T21:03:38.418Z,64.13
2023-03-24T21:06:10.335Z,64.10
2023-03-24T21:08:38.131Z,63.92
2023-03-24T21:11:06.293Z,63.83
2023-03-24T21:13:37.684Z,64.08
2023-03-24T21:16:08.488Z,64.42
2023-03-24T21:18:37.845Z,64.41
2023-03-24T21:21:06.872Z,64.89
2023-03-24T21:23:39.125Z,64.96
2023-03-24T21:26:18.025Z,64.95
2023-03-24T21:28:46.028Z,64.35
2023-03-24T21:31:21.589Z,65.86
2023-03-24T21:33:51.075Z,66.65
2023-03-24T21:36:20.862Z,68.64
2023-03-24T21:38:50.023Z,69.49
2023-03-24T21:41:19.729Z,70.37
2023-03-24T21:43:51.316Z,69.91
2023-03-24T21:46:21.892Z,70.80
2023-03-24T21:48:51.939Z,71.56
2023-03-24T21:51:34.445Z,71.04
2023-03-24T21:54:04.758Z,70.82
2023-03-24T21:56:34.545Z,71.61
2023-03-24T21:59:02.854Z,72.47
2023-03-24T22:01:34.106Z,72.44
2023-03-24T22:04:03.544Z,72.86
2023-03-24T22:06:37.782Z,72.55
2023-03-24T22:09:08.370Z,72.37
2023-03-24T22:11:42.587Z,72.96
2023-03-24T22:14:11.351Z,72.46
2023-03-24T22:16:39.812Z,71.87
2023-03-24T22:19:07.900Z,71.46
2023-03-24T22:21:36.357Z,71.11
2023-03-24T22:24:06.097Z,70.26
2023-03-24T22:26:34.724Z,69.82
2023-03-24T22:29:03.509Z,69.02
2023-03-24T22:31:31.719Z,68.44
2023-03-24T22:34:00.339Z,68.16
2023-03-24T22:36:28.436Z,67.84
2023-03-24T22:38:56.553Z,67.97
2023-03-24T22:41:25.133Z,68.26
2023-03-24T22:43:52.709Z,68.67
2023-03-24T22:46:22.360Z,69.03
2023-03-24T22:48:50.484Z,69.33
2023-03-24T22:51:19.598Z,69.67
2023-03-24T22:53:48.461Z,69.75
2023-03-24T22:56:17.087Z,70.64
2023-03-24T22:58:44.723Z,70.13
2023-03-24T23:01:12.479Z,70.59
2023-03-24T23:03:40.780Z,70.26
2023-03-24T23:06:11.092Z,70.23
2023-03-24T23:08:40.283Z,69.90
2023-03-24T23:11:09.115Z,70.93
2023-03-24T23:13:36.912Z,70.63
2023-03-24T23:16:05.753Z,70.32
2023-03-24T23:18:34.208Z,71.61
2023-03-24T23:21:07.891Z,71.06
2023-03-24T23:23:36.940Z,72.05
2023-03-24T23:26:05.889Z,73.02
2023-03-24T23:28:34.811Z,72.74
2023-03-24T23:31:03.088Z,72.54
2023-03-24T23:33:30.874Z,72.87
2023-03-24T23:35:59.325Z,72.77
2023-03-24T23:38:27.590Z,72.64
2023-03-24T23:40:55.707Z,74.06
2023-03-24T23:43:23.875Z,73.93
2023-03-24T23:45:56.929Z,73.35
2023-03-24T23:48:25.658Z,73.28
2023-03-24T23:51:01.662Z,72.47
2023-03-24T23:53:30.802Z,72.67
2023-03-24T23:56:02.070Z,71.40
2023-03-24T23:58:33.562Z,71.53
